sensor_id;sensor_type;location;lat;lon;timestamp;P1;durP1;ratioP1;P2;durP2;ratioP2
33858;SDS011;20156;47.486;12.074;2023-02-08T00:01:35;15.30;;;9.93;;
33858;SDS011;20156;47.486;12.074;2023-02-08T00:04:01;17.50;;;12.23;;
33858;SDS011;20156;47.486;12.074;2023-02-08T00:06:26;17.40;;;11.27;;
33858;SDS011;20156;47.486;12.074;2023-02-08T00:08:55;14.17;;;9.47;;
33858;SDS011;20156;47.486;12.074;2023-02-08T00:11:20;12.97;;;8.43;;
33858;SDS011;20156;47.486;12.074;2023-02-08T00:13:45;12.37;;;8.03;;
33858;SDS011;20156;47.486;12.074;2023-02-08T00:16:11;15.27;;;9.00;;
33858;SDS011;20156;47.486;12.074;2023-02-08T00:18:37;12.90;;;8.13;;
33858;SDS011;20156;47.486;12.074;2023-02-08T00:21:09;13.87;;;9.57;;
33858;SDS011;20156;47.486;12.074;2023-02-08T00:23:36;14.80;;;8.57;;
33858;SDS011;20156;47.486;12.074;2023-02-08T00:26:02;14.43;;;9.40;;
33858;SDS011;20156;47.486;12.074;2023-02-08T00:28:28;11.77;;;9.13;;
33858;SDS011;20156;47.486;12.074;2023-02-08T00:30:53;13.63;;;9.67;;
33858;SDS011;20156;47.486;12.074;2023-02-08T00:33:18;14.27;;;8.73;;
33858;SDS011;20156;47.486;12.074;2023-02-08T00:35:44;13.80;;;9.33;;
33858;SDS011;20156;47.486;12.074;2023-02-08T00:38:10;13.83;;;10.00;;
33858;SDS011;20156;47.486;12.074;2023-02-08T00:40:35;15.07;;;9.97;;
33858;SDS011;20156;47.486;12.074;2023-02-08T00:43:01;15.73;;;10.47;;
33858;SDS011;20156;47.486;12.074;2023-02-08T00:45:26;14.10;;;8.97;;
33858;SDS011;20156;47.486;12.074;2023-02-08T00:47:52;12.50;;;8.63;;
33858;SDS011;20156;47.486;12.074;2023-02-08T00:50:17;12.53;;;8.37;;
33858;SDS011;20156;47.486;12.074;2023-02-08T00:52:43;12.30;;;8.83;;
33858;SDS011;20156;47.486;12.074;2023-02-08T00:55:08;10.50;;;7.83;;
33858;SDS011;20156;47.486;12.074;2023-02-08T00:57:34;13.67;;;9.20;;
33858;SDS011;20156;47.486;12.074;2023-02-08T00:59:59;14.40;;;10.03;;
33858;SDS011;20156;47.486;12.074;2023-02-08T01:02:26;14.53;;;8.67;;
33858;SDS011;20156;47.486;12.074;2023-02-08T01:04:51;12.73;;;8.57;;
33858;SDS011;20156;47.486;12.074;2023-02-08T01:07:17;14.03;;;8.80;;
33858;SDS011;20156;47.486;12.074;2023-02-08T01:09:42;17.00;;;10.57;;
33858;SDS011;20156;47.486;12.074;2023-02-08T01:12:08;16.20;;;10.07;;
33858;SDS011;20156;47.486;12.074;2023-02-08T01:14:33;12.50;;;8.93;;
33858;SDS011;20156;47.486;12.074;2023-02-08T01:17:01;14.10;;;8.93;;
33858;SDS011;20156;47.486;12.074;2023-02-08T01:19:27;12.50;;;7.70;;
33858;SDS011;20156;47.486;12.074;2023-02-08T01:21:52;10.77;;;7.23;;
33858;SDS011;20156;47.486;12.074;2023-02-08T01:24:18;12.07;;;7.63;;
33858;SDS011;20156;47.486;12.074;2023-02-08T01:26:43;13.13;;;9.10;;
33858;SDS011;20156;47.486;12.074;2023-02-08T01:29:08;13.13;;;8.47;;
33858;SDS011;20156;47.486;12.074;2023-02-08T01:31:35;12.70;;;9.33;;
33858;SDS011;20156;47.486;12.074;2023-02-08T01:34:02;12.90;;;8.53;;
33858;SDS011;20156;47.486;12.074;2023-02-08T01:36:29;14.10;;;8.80;;
33858;SDS011;20156;47.486;12.074;2023-02-08T01:38:56;11.70;;;7.93;;
33858;SDS011;20156;47.486;12.074;2023-02-08T01:41:27;11.13;;;8.10;;
33858;SDS011;20156;47.486;12.074;2023-02-08T01:47:12;17.50;;;11.20;;
33858;SDS011;20156;47.486;12.074;2023-02-08T01:49:37;19.23;;;11.37;;
33858;SDS011;20156;47.486;12.074;2023-02-08T01:52:07;17.47;;;8.60;;
33858;SDS011;20156;47.486;12.074;2023-02-08T01:54:37;16.07;;;9.73;;
33858;SDS011;20156;47.486;12.074;2023-02-08T01:57:10;13.63;;;9.43;;
33858;SDS011;20156;47.486;12.074;2023-02-08T01:59:38;14.60;;;9.30;;
33858;SDS011;20156;47.486;12.074;2023-02-08T02:02:08;13.03;;;8.93;;
33858;SDS011;20156;47.486;12.074;2023-02-08T02:04:37;14.63;;;8.93;;
33858;SDS011;20156;47.486;12.074;2023-02-08T02:07:03;13.67;;;8.87;;
33858;SDS011;20156;47.486;12.074;2023-02-08T02:09:34;15.07;;;8.73;;
33858;SDS011;20156;47.486;12.074;2023-02-08T02:12:05;13.23;;;9.13;;
33858;SDS011;20156;47.486;12.074;2023-02-08T02:14:32;13.53;;;9.40;;
33858;SDS011;20156;47.486;12.074;2023-02-08T02:16:59;15.13;;;9.20;;
33858;SDS011;20156;47.486;12.074;2023-02-08T02:27:47;18.03;;;10.63;;
33858;SDS011;20156;47.486;12.074;2023-02-08T02:33:01;15.33;;;9.37;;
33858;SDS011;20156;47.486;12.074;2023-02-08T02:41:19;15.50;;;10.03;;
33858;SDS011;20156;47.486;12.074;2023-02-08T02:44:16;12.03;;;8.40;;
33858;SDS011;20156;47.486;12.074;2023-02-08T02:46:51;13.23;;;8.63;;
33858;SDS011;20156;47.486;12.074;2023-02-08T02:49:49;13.53;;;7.50;;
33858;SDS011;20156;47.486;12.074;2023-02-08T02:52:23;13.57;;;7.60;;
33858;SDS011;20156;47.486;12.074;2023-02-08T02:54:53;9.40;;;7.30;;
33858;SDS011;20156;47.486;12.074;2023-02-08T02:57:26;12.67;;;7.47;;
33858;SDS011;20156;47.486;12.074;2023-02-08T02:59:54;13.87;;;8.73;;
33858;SDS011;20156;47.486;12.074;2023-02-08T03:02:25;12.00;;;7.60;;
33858;SDS011;20156;47.486;12.074;2023-02-08T03:04:53;12.57;;;8.17;;
33858;SDS011;20156;47.486;12.074;2023-02-08T03:21:06;12.67;;;7.60;;
33858;SDS011;20156;47.486;12.074;2023-02-08T03:23:40;12.87;;;8.23;;
33858;SDS011;20156;47.486;12.074;2023-02-08T03:26:16;12.33;;;7.63;;
33858;SDS011;20156;47.486;12.074;2023-02-08T03:29:35;13.80;;;7.93;;
33858;SDS011;20156;47.486;12.074;2023-02-08T03:31:49;11.60;;;8.03;;
33858;SDS011;20156;47.486;12.074;2023-02-08T03:37:08;13.50;;;8.00;;
33858;SDS011;20156;47.486;12.074;2023-02-08T03:39:40;14.63;;;8.97;;
33858;SDS011;20156;47.486;12.074;2023-02-08T03:42:11;13.00;;;8.60;;
33858;SDS011;20156;47.486;12.074;2023-02-08T03:44:43;11.80;;;7.63;;
33858;SDS011;20156;47.486;12.074;2023-02-08T03:47:17;10.73;;;7.63;;
33858;SDS011;20156;47.486;12.074;2023-02-08T03:49:47;12.50;;;7.13;;
33858;SDS011;20156;47.486;12.074;2023-02-08T03:52:16;12.63;;;7.27;;
33858;SDS011;20156;47.486;12.074;2023-02-08T03:54:48;13.47;;;7.57;;
33858;SDS011;20156;47.486;12.074;2023-02-08T03:57:22;8.93;;;6.60;;
33858;SDS011;20156;47.486;12.074;2023-02-08T03:59:55;8.53;;;6.40;;
33858;SDS011;20156;47.486;12.074;2023-02-08T04:02:25;12.57;;;8.70;;
33858;SDS011;20156;47.486;12.074;2023-02-08T04:04:53;10.30;;;8.27;;
33858;SDS011;20156;47.486;12.074;2023-02-08T04:07:20;15.10;;;9.67;;
33858;SDS011;20156;47.486;12.074;2023-02-08T04:09:46;13.73;;;9.27;;
33858;SDS011;20156;47.486;12.074;2023-02-08T04:12:11;15.27;;;10.10;;
33858;SDS011;20156;47.486;12.074;2023-02-08T04:14:37;11.30;;;8.67;;
33858;SDS011;20156;47.486;12.074;2023-02-08T04:17:02;15.10;;;8.20;;
33858;SDS011;20156;47.486;12.074;2023-02-08T04:19:28;17.87;;;11.10;;
33858;SDS011;20156;47.486;12.074;2023-02-08T04:21:53;13.73;;;8.83;;
33858;SDS011;20156;47.486;12.074;2023-02-08T04:24:19;11.80;;;8.10;;
33858;SDS011;20156;47.486;12.074;2023-02-08T04:26:44;14.43;;;9.23;;
33858;SDS011;20156;47.486;12.074;2023-02-08T04:29:10;11.23;;;7.67;;
33858;SDS011;20156;47.486;12.074;2023-02-08T04:31:36;15.33;;;7.73;;
33858;SDS011;20156;47.486;12.074;2023-02-08T04:34:01;12.23;;;8.80;;
33858;SDS011;20156;47.486;12.074;2023-02-08T04:36:27;12.00;;;8.63;;
33858;SDS011;20156;47.486;12.074;2023-02-08T04:38:52;13.37;;;9.00;;
33858;SDS011;20156;47.486;12.074;2023-02-08T04:41:18;11.50;;;7.40;;
33858;SDS011;20156;47.486;12.074;2023-02-08T04:43:43;10.63;;;7.37;;
33858;SDS011;20156;47.486;12.074;2023-02-08T04:46:09;11.53;;;7.47;;
33858;SDS011;20156;47.486;12.074;2023-02-08T04:48:35;14.03;;;8.63;;
33858;SDS011;20156;47.486;12.074;2023-02-08T04:51:00;11.53;;;8.00;;
33858;SDS011;20156;47.486;12.074;2023-02-08T04:53:26;12.07;;;8.03;;
33858;SDS011;20156;47.486;12.074;2023-02-08T04:55:51;13.43;;;8.17;;
33858;SDS011;20156;47.486;12.074;2023-02-08T04:58:17;12.50;;;8.50;;
33858;SDS011;20156;47.486;12.074;2023-02-08T05:00:43;12.23;;;7.50;;
33858;SDS011;20156;47.486;12.074;2023-02-08T05:03:08;11.70;;;7.60;;
33858;SDS011;20156;47.486;12.074;2023-02-08T05:05:34;11.73;;;6.87;;
33858;SDS011;20156;47.486;12.074;2023-02-08T05:08:00;13.87;;;7.73;;
33858;SDS011;20156;47.486;12.074;2023-02-08T05:10:25;9.73;;;7.20;;
33858;SDS011;20156;47.486;12.074;2023-02-08T05:12:51;11.67;;;8.00;;
33858;SDS011;20156;47.486;12.074;2023-02-08T05:15:17;13.20;;;7.97;;
33858;SDS011;20156;47.486;12.074;2023-02-08T05:17:42;10.30;;;7.10;;
33858;SDS011;20156;47.486;12.074;2023-02-08T05:20:08;11.40;;;7.97;;
33858;SDS011;20156;47.486;12.074;2023-02-08T05:22:34;12.47;;;7.97;;
33858;SDS011;20156;47.486;12.074;2023-02-08T05:24:59;12.07;;;8.33;;
33858;SDS011;20156;47.486;12.074;2023-02-08T05:27:25;15.37;;;7.63;;
33858;SDS011;20156;47.486;12.074;2023-02-08T05:29:50;14.00;;;8.00;;
33858;SDS011;20156;47.486;12.074;2023-02-08T05:32:16;20.30;;;11.63;;
33858;SDS011;20156;47.486;12.074;2023-02-08T05:34:42;19.93;;;11.97;;
33858;SDS011;20156;47.486;12.074;2023-02-08T05:37:07;13.60;;;9.50;;
33858;SDS011;20156;47.486;12.074;2023-02-08T05:39:32;16.43;;;9.63;;
33858;SDS011;20156;47.486;12.074;2023-02-08T05:41:58;12.87;;;8.57;;
33858;SDS011;20156;47.486;12.074;2023-02-08T05:44:24;13.27;;;8.27;;
33858;SDS011;20156;47.486;12.074;2023-02-08T05:46:49;12.33;;;7.47;;
33858;SDS011;20156;47.486;12.074;2023-02-08T05:49:15;11.70;;;7.40;;
33858;SDS011;20156;47.486;12.074;2023-02-08T05:51:40;11.47;;;7.83;;
33858;SDS011;20156;47.486;12.074;2023-02-08T05:54:05;12.77;;;7.63;;
33858;SDS011;20156;47.486;12.074;2023-02-08T05:56:31;10.90;;;7.37;;
33858;SDS011;20156;47.486;12.074;2023-02-08T05:58:58;13.87;;;8.93;;
33858;SDS011;20156;47.486;12.074;2023-02-08T06:01:25;17.37;;;9.07;;
33858;SDS011;20156;47.486;12.074;2023-02-08T06:03:51;18.27;;;10.07;;
33858;SDS011;20156;47.486;12.074;2023-02-08T06:06:16;16.03;;;10.37;;
33858;SDS011;20156;47.486;12.074;2023-02-08T06:08:42;16.00;;;10.40;;
33858;SDS011;20156;47.486;12.074;2023-02-08T06:11:07;19.57;;;10.37;;
33858;SDS011;20156;47.486;12.074;2023-02-08T06:13:32;16.33;;;9.33;;
33858;SDS011;20156;47.486;12.074;2023-02-08T06:15:58;16.10;;;9.47;;
33858;SDS011;20156;47.486;12.074;2023-02-08T06:18:23;14.83;;;9.20;;
33858;SDS011;20156;47.486;12.074;2023-02-08T06:20:51;15.47;;;8.23;;
33858;SDS011;20156;47.486;12.074;2023-02-08T06:23:17;12.50;;;7.77;;
33858;SDS011;20156;47.486;12.074;2023-02-08T06:25:43;12.27;;;8.00;;
33858;SDS011;20156;47.486;12.074;2023-02-08T06:28:08;13.17;;;8.73;;
33858;SDS011;20156;47.486;12.074;2023-02-08T06:30:35;16.03;;;9.63;;
33858;SDS011;20156;47.486;12.074;2023-02-08T06:33:01;13.90;;;8.07;;
33858;SDS011;20156;47.486;12.074;2023-02-08T06:35:26;14.30;;;9.80;;
33858;SDS011;20156;47.486;12.074;2023-02-08T06:37:52;13.67;;;8.50;;
33858;SDS011;20156;47.486;12.074;2023-02-08T06:40:18;11.00;;;7.63;;
33858;SDS011;20156;47.486;12.074;2023-02-08T06:42:43;11.63;;;7.97;;
33858;SDS011;20156;47.486;12.074;2023-02-08T06:45:10;13.73;;;8.37;;
33858;SDS011;20156;47.486;12.074;2023-02-08T06:47:35;13.57;;;9.17;;
33858;SDS011;20156;47.486;12.074;2023-02-08T06:50:01;10.23;;;7.37;;
33858;SDS011;20156;47.486;12.074;2023-02-08T06:52:26;13.60;;;8.33;;
33858;SDS011;20156;47.486;12.074;2023-02-08T06:54:52;13.80;;;9.00;;
33858;SDS011;20156;47.486;12.074;2023-02-08T06:57:17;14.53;;;8.73;;
33858;SDS011;20156;47.486;12.074;2023-02-08T06:59:43;13.43;;;8.20;;
33858;SDS011;20156;47.486;12.074;2023-02-08T07:02:12;14.23;;;8.63;;
33858;SDS011;20156;47.486;12.074;2023-02-08T07:04:39;11.40;;;7.80;;
33858;SDS011;20156;47.486;12.074;2023-02-08T07:07:05;15.07;;;9.23;;
33858;SDS011;20156;47.486;12.074;2023-02-08T07:09:31;13.97;;;9.60;;
33858;SDS011;20156;47.486;12.074;2023-02-08T07:11:58;17.77;;;10.80;;
33858;SDS011;20156;47.486;12.074;2023-02-08T07:14:24;23.90;;;15.03;;
33858;SDS011;20156;47.486;12.074;2023-02-08T07:16:49;23.70;;;14.87;;
33858;SDS011;20156;47.486;12.074;2023-02-08T07:19:15;13.97;;;9.00;;
33858;SDS011;20156;47.486;12.074;2023-02-08T07:21:41;12.97;;;8.60;;
33858;SDS011;20156;47.486;12.074;2023-02-08T07:24:06;14.33;;;8.77;;
33858;SDS011;20156;47.486;12.074;2023-02-08T07:26:31;12.93;;;7.27;;
33858;SDS011;20156;47.486;12.074;2023-02-08T07:28:57;18.00;;;10.60;;
33858;SDS011;20156;47.486;12.074;2023-02-08T07:31:22;22.83;;;15.13;;
33858;SDS011;20156;47.486;12.074;2023-02-08T07:33:48;21.17;;;11.60;;
33858;SDS011;20156;47.486;12.074;2023-02-08T07:36:13;69.33;;;46.03;;
33858;SDS011;20156;47.486;12.074;2023-02-08T07:38:39;19.07;;;13.73;;
33858;SDS011;20156;47.486;12.074;2023-02-08T07:41:09;19.93;;;12.30;;
33858;SDS011;20156;47.486;12.074;2023-02-08T07:43:37;22.00;;;15.47;;
33858;SDS011;20156;47.486;12.074;2023-02-08T07:46:07;45.07;;;26.20;;
33858;SDS011;20156;47.486;12.074;2023-02-08T07:48:40;46.40;;;28.90;;
33858;SDS011;20156;47.486;12.074;2023-02-08T07:51:07;25.43;;;15.60;;
33858;SDS011;20156;47.486;12.074;2023-02-08T07:53:33;20.00;;;12.03;;
33858;SDS011;20156;47.486;12.074;2023-02-08T07:55:59;50.00;;;27.40;;
33858;SDS011;20156;47.486;12.074;2023-02-08T07:58:25;16.57;;;10.10;;
33858;SDS011;20156;47.486;12.074;2023-02-08T08:00:51;19.90;;;10.97;;
33858;SDS011;20156;47.486;12.074;2023-02-08T08:03:17;15.53;;;9.90;;
33858;SDS011;20156;47.486;12.074;2023-02-08T08:05:43;16.07;;;11.37;;
33858;SDS011;20156;47.486;12.074;2023-02-08T08:08:09;14.03;;;9.93;;
33858;SDS011;20156;47.486;12.074;2023-02-08T08:10:35;31.63;;;26.13;;
33858;SDS011;20156;47.486;12.074;2023-02-08T08:13:00;31.03;;;25.37;;
33858;SDS011;20156;47.486;12.074;2023-02-08T08:15:26;24.23;;;15.20;;
33858;SDS011;20156;47.486;12.074;2023-02-08T08:17:51;20.40;;;14.17;;
33858;SDS011;20156;47.486;12.074;2023-02-08T08:20:17;35.00;;;25.23;;
33858;SDS011;20156;47.486;12.074;2023-02-08T08:22:43;24.47;;;16.70;;
33858;SDS011;20156;47.486;12.074;2023-02-08T08:25:08;24.47;;;18.00;;
33858;SDS011;20156;47.486;12.074;2023-02-08T08:27:33;17.47;;;10.33;;
33858;SDS011;20156;47.486;12.074;2023-02-08T08:29:59;18.03;;;10.13;;
33858;SDS011;20156;47.486;12.074;2023-02-08T08:32:25;14.70;;;10.90;;
33858;SDS011;20156;47.486;12.074;2023-02-08T08:34:51;17.23;;;13.73;;
33858;SDS011;20156;47.486;12.074;2023-02-08T08:37:16;39.37;;;30.07;;
33858;SDS011;20156;47.486;12.074;2023-02-08T08:39:42;145.47;;;78.97;;
33858;SDS011;20156;47.486;12.074;2023-02-08T08:42:07;32.70;;;21.20;;
33858;SDS011;20156;47.486;12.074;2023-02-08T08:44:33;28.73;;;18.03;;
33858;SDS011;20156;47.486;12.074;2023-02-08T08:46:59;40.23;;;28.40;;
33858;SDS011;20156;47.486;12.074;2023-02-08T08:49:25;48.33;;;31.47;;
33858;SDS011;20156;47.486;12.074;2023-02-08T08:51:52;61.80;;;46.33;;
33858;SDS011;20156;47.486;12.074;2023-02-08T08:54:18;86.30;;;61.60;;
33858;SDS011;20156;47.486;12.074;2023-02-08T08:56:44;40.87;;;31.13;;
33858;SDS011;20156;47.486;12.074;2023-02-08T08:59:09;35.40;;;26.57;;
33858;SDS011;20156;47.486;12.074;2023-02-08T09:01:34;41.63;;;29.47;;
33858;SDS011;20156;47.486;12.074;2023-02-08T09:04:00;32.00;;;20.83;;
33858;SDS011;20156;47.486;12.074;2023-02-08T09:06:25;26.33;;;19.03;;
33858;SDS011;20156;47.486;12.074;2023-02-08T09:08:51;20.20;;;16.03;;
33858;SDS011;20156;47.486;12.074;2023-02-08T09:11:17;25.00;;;13.23;;
33858;SDS011;20156;47.486;12.074;2023-02-08T09:13:43;16.60;;;10.30;;
33858;SDS011;20156;47.486;12.074;2023-02-08T09:16:17;20.53;;;10.43;;
33858;SDS011;20156;47.486;12.074;2023-02-08T09:18:43;13.00;;;9.20;;
33858;SDS011;20156;47.486;12.074;2023-02-08T09:21:13;14.87;;;9.73;;
33858;SDS011;20156;47.486;12.074;2023-02-08T09:23:41;16.80;;;9.30;;
33858;SDS011;20156;47.486;12.074;2023-02-08T09:26:08;15.67;;;9.07;;
33858;SDS011;20156;47.486;12.074;2023-02-08T09:28:36;12.50;;;8.53;;
33858;SDS011;20156;47.486;12.074;2023-02-08T09:31:17;16.30;;;9.27;;
33858;SDS011;20156;47.486;12.074;2023-02-08T09:33:48;14.23;;;9.00;;
33858;SDS011;20156;47.486;12.074;2023-02-08T09:36:14;11.80;;;8.50;;
33858;SDS011;20156;47.486;12.074;2023-02-08T09:38:41;12.10;;;7.80;;
33858;SDS011;20156;47.486;12.074;2023-02-08T09:41:25;10.67;;;7.33;;
33858;SDS011;20156;47.486;12.074;2023-02-08T09:44:42;10.60;;;6.87;;
33858;SDS011;20156;47.486;12.074;2023-02-08T09:46:49;8.53;;;6.20;;
33858;SDS011;20156;47.486;12.074;2023-02-08T09:49:22;8.87;;;6.23;;
33858;SDS011;20156;47.486;12.074;2023-02-08T09:51:54;8.23;;;6.17;;
33858;SDS011;20156;47.486;12.074;2023-02-08T09:54:30;8.50;;;6.30;;
33858;SDS011;20156;47.486;12.074;2023-02-08T09:57:03;9.17;;;6.40;;
33858;SDS011;20156;47.486;12.074;2023-02-08T09:59:34;8.20;;;5.60;;
33858;SDS011;20156;47.486;12.074;2023-02-08T10:05:04;8.30;;;5.37;;
33858;SDS011;20156;47.486;12.074;2023-02-08T10:07:34;7.17;;;5.53;;
33858;SDS011;20156;47.486;12.074;2023-02-08T10:10:10;10.07;;;5.73;;
33858;SDS011;20156;47.486;12.074;2023-02-08T10:12:44;8.33;;;5.23;;
33858;SDS011;20156;47.486;12.074;2023-02-08T10:15:30;7.13;;;4.83;;
33858;SDS011;20156;47.486;12.074;2023-02-08T10:25:58;7.63;;;4.23;;
33858;SDS011;20156;47.486;12.074;2023-02-08T10:34:49;8.30;;;6.80;;
33858;SDS011;20156;47.486;12.074;2023-02-08T10:37:20;14.80;;;12.23;;
33858;SDS011;20156;47.486;12.074;2023-02-08T10:39:59;7.60;;;6.70;;
33858;SDS011;20156;47.486;12.074;2023-02-08T10:42:39;11.60;;;9.13;;
33858;SDS011;20156;47.486;12.074;2023-02-08T10:45:20;8.00;;;6.67;;
33858;SDS011;20156;47.486;12.074;2023-02-08T10:47:52;7.10;;;6.40;;
33858;SDS011;20156;47.486;12.074;2023-02-08T10:50:36;6.40;;;5.40;;
33858;SDS011;20156;47.486;12.074;2023-02-08T10:53:05;5.03;;;4.53;;
33858;SDS011;20156;47.486;12.074;2023-02-08T10:55:31;7.47;;;5.40;;
33858;SDS011;20156;47.486;12.074;2023-02-08T10:58:01;8.03;;;6.97;;
33858;SDS011;20156;47.486;12.074;2023-02-08T11:00:30;15.77;;;14.17;;
33858;SDS011;20156;47.486;12.074;2023-02-08T11:02:58;20.10;;;17.83;;
33858;SDS011;20156;47.486;12.074;2023-02-08T11:05:37;10.20;;;8.10;;
33858;SDS011;20156;47.486;12.074;2023-02-08T11:08:09;12.60;;;8.77;;
33858;SDS011;20156;47.486;12.074;2023-02-08T11:10:36;12.57;;;9.40;;
33858;SDS011;20156;47.486;12.074;2023-02-08T11:13:04;11.33;;;5.10;;
33858;SDS011;20156;47.486;12.074;2023-02-08T11:15:43;6.37;;;5.33;;
33858;SDS011;20156;47.486;12.074;2023-02-08T11:18:19;7.63;;;5.53;;
33858;SDS011;20156;47.486;12.074;2023-02-08T11:20:57;7.60;;;6.37;;
33858;SDS011;20156;47.486;12.074;2023-02-08T11:23:42;7.63;;;5.80;;
33858;SDS011;20156;47.486;12.074;2023-02-08T11:29:12;8.30;;;4.87;;
33858;SDS011;20156;47.486;12.074;2023-02-08T11:34:22;7.13;;;4.40;;
33858;SDS011;20156;47.486;12.074;2023-02-08T11:36:53;4.77;;;4.10;;
33858;SDS011;20156;47.486;12.074;2023-02-08T11:39:28;6.07;;;4.40;;
33858;SDS011;20156;47.486;12.074;2023-02-08T11:42:04;7.43;;;4.13;;
33858;SDS011;20156;47.486;12.074;2023-02-08T11:44:35;4.60;;;4.03;;
33858;SDS011;20156;47.486;12.074;2023-02-08T11:47:06;6.30;;;4.07;;
33858;SDS011;20156;47.486;12.074;2023-02-08T11:49:40;5.37;;;4.07;;
33858;SDS011;20156;47.486;12.074;2023-02-08T12:00:20;4.37;;;3.97;;
33858;SDS011;20156;47.486;12.074;2023-02-08T12:02:48;5.43;;;4.70;;
33858;SDS011;20156;47.486;12.074;2023-02-08T12:05:15;5.07;;;4.53;;
33858;SDS011;20156;47.486;12.074;2023-02-08T12:08:03;5.60;;;4.80;;
33858;SDS011;20156;47.486;12.074;2023-02-08T12:21:45;7.17;;;5.00;;
33858;SDS011;20156;47.486;12.074;2023-02-08T12:27:35;7.40;;;4.70;;
33858;SDS011;20156;47.486;12.074;2023-02-08T12:38:33;6.07;;;4.27;;
33858;SDS011;20156;47.486;12.074;2023-02-08T12:41:30;7.77;;;4.97;;
33858;SDS011;20156;47.486;12.074;2023-02-08T12:54:41;6.13;;;4.70;;
33858;SDS011;20156;47.486;12.074;2023-02-08T12:57:12;6.03;;;4.30;;
33858;SDS011;20156;47.486;12.074;2023-02-08T12:59:42;8.67;;;5.10;;
33858;SDS011;20156;47.486;12.074;2023-02-08T13:02:18;6.40;;;5.13;;
33858;SDS011;20156;47.486;12.074;2023-02-08T13:04:51;7.83;;;5.20;;
33858;SDS011;20156;47.486;12.074;2023-02-08T13:07:33;6.47;;;3.83;;
33858;SDS011;20156;47.486;12.074;2023-02-08T13:12:30;5.73;;;3.60;;
33858;SDS011;20156;47.486;12.074;2023-02-08T13:15:16;4.70;;;4.00;;
33858;SDS011;20156;47.486;12.074;2023-02-08T13:17:50;5.23;;;3.80;;
33858;SDS011;20156;47.486;12.074;2023-02-08T13:20:25;11.03;;;4.60;;
33858;SDS011;20156;47.486;12.074;2023-02-08T13:22:52;4.80;;;4.30;;
33858;SDS011;20156;47.486;12.074;2023-02-08T13:25:31;5.90;;;4.40;;
33858;SDS011;20156;47.486;12.074;2023-02-08T13:28:01;5.73;;;5.00;;
33858;SDS011;20156;47.486;12.074;2023-02-08T13:30:28;6.30;;;4.83;;
33858;SDS011;20156;47.486;12.074;2023-02-08T13:32:53;6.90;;;4.37;;
33858;SDS011;20156;47.486;12.074;2023-02-08T13:35:27;4.73;;;4.20;;
33858;SDS011;20156;47.486;12.074;2023-02-08T13:38:00;5.60;;;4.57;;
33858;SDS011;20156;47.486;12.074;2023-02-08T13:40:29;5.97;;;5.17;;
33858;SDS011;20156;47.486;12.074;2023-02-08T13:43:01;7.93;;;4.83;;
33858;SDS011;20156;47.486;12.074;2023-02-08T13:45:34;6.47;;;4.87;;
33858;SDS011;20156;47.486;12.074;2023-02-08T13:48:05;5.20;;;4.70;;
33858;SDS011;20156;47.486;12.074;2023-02-08T13:53:03;6.37;;;4.77;;
33858;SDS011;20156;47.486;12.074;2023-02-08T14:03:25;6.57;;;5.30;;
33858;SDS011;20156;47.486;12.074;2023-02-08T14:05:53;9.10;;;5.70;;
33858;SDS011;20156;47.486;12.074;2023-02-08T14:11:02;8.47;;;5.40;;
33858;SDS011;20156;47.486;12.074;2023-02-08T14:13:45;9.27;;;5.07;;
33858;SDS011;20156;47.486;12.074;2023-02-08T14:18:58;7.40;;;5.73;;
33858;SDS011;20156;47.486;12.074;2023-02-08T14:21:28;8.50;;;4.83;;
33858;SDS011;20156;47.486;12.074;2023-02-08T14:24:01;9.03;;;5.47;;
33858;SDS011;20156;47.486;12.074;2023-02-08T14:26:32;7.57;;;5.40;;
33858;SDS011;20156;47.486;12.074;2023-02-08T14:29:00;6.00;;;5.23;;
33858;SDS011;20156;47.486;12.074;2023-02-08T14:31:38;7.70;;;4.80;;
33858;SDS011;20156;47.486;12.074;2023-02-08T14:34:17;5.67;;;4.73;;
33858;SDS011;20156;47.486;12.074;2023-02-08T14:36:49;6.47;;;4.70;;
33858;SDS011;20156;47.486;12.074;2023-02-08T14:39:26;6.83;;;4.57;;
33858;SDS011;20156;47.486;12.074;2023-02-08T14:42:02;9.63;;;5.13;;
33858;SDS011;20156;47.486;12.074;2023-02-08T14:49:48;8.17;;;5.30;;
33858;SDS011;20156;47.486;12.074;2023-02-08T14:52:20;6.43;;;4.87;;
33858;SDS011;20156;47.486;12.074;2023-02-08T14:55:05;6.67;;;5.30;;
33858;SDS011;20156;47.486;12.074;2023-02-08T14:57:38;10.00;;;5.13;;
33858;SDS011;20156;47.486;12.074;2023-02-08T15:00:27;8.03;;;5.30;;
33858;SDS011;20156;47.486;12.074;2023-02-08T15:02:53;7.50;;;5.73;;
33858;SDS011;20156;47.486;12.074;2023-02-08T15:05:21;7.70;;;5.50;;
33858;SDS011;20156;47.486;12.074;2023-02-08T15:07:50;7.03;;;5.40;;
33858;SDS011;20156;47.486;12.074;2023-02-08T15:10:19;9.57;;;5.87;;
33858;SDS011;20156;47.486;12.074;2023-02-08T15:12:48;6.23;;;4.80;;
33858;SDS011;20156;47.486;12.074;2023-02-08T15:15:33;7.20;;;5.33;;
33858;SDS011;20156;47.486;12.074;2023-02-08T15:17:59;7.40;;;5.43;;
33858;SDS011;20156;47.486;12.074;2023-02-08T15:20:30;8.50;;;6.17;;
33858;SDS011;20156;47.486;12.074;2023-02-08T15:25:29;9.13;;;7.43;;
33858;SDS011;20156;47.486;12.074;2023-02-08T15:28:23;9.33;;;6.80;;
33858;SDS011;20156;47.486;12.074;2023-02-08T15:30:55;10.80;;;7.00;;
33858;SDS011;20156;47.486;12.074;2023-02-08T15:33:33;13.37;;;7.63;;
33858;SDS011;20156;47.486;12.074;2023-02-08T15:36:06;12.87;;;8.90;;
33858;SDS011;20156;47.486;12.074;2023-02-08T15:38:39;17.60;;;10.03;;
33858;SDS011;20156;47.486;12.074;2023-02-08T15:41:13;11.63;;;8.97;;
33858;SDS011;20156;47.486;12.074;2023-02-08T15:43:40;17.27;;;10.43;;
33858;SDS011;20156;47.486;12.074;2023-02-08T15:46:25;13.87;;;10.20;;
33858;SDS011;20156;47.486;12.074;2023-02-08T15:48:51;15.67;;;10.50;;
33858;SDS011;20156;47.486;12.074;2023-02-08T15:51:20;17.97;;;10.27;;
33858;SDS011;20156;47.486;12.074;2023-02-08T15:53:49;14.80;;;11.03;;
33858;SDS011;20156;47.486;12.074;2023-02-08T15:56:28;19.67;;;12.03;;
33858;SDS011;20156;47.486;12.074;2023-02-08T15:58:59;18.03;;;12.70;;
33858;SDS011;20156;47.486;12.074;2023-02-08T16:01:27;18.87;;;13.37;;
33858;SDS011;20156;47.486;12.074;2023-02-08T16:03:54;22.30;;;13.27;;
33858;SDS011;20156;47.486;12.074;2023-02-08T16:06:23;18.73;;;12.87;;
33858;SDS011;20156;47.486;12.074;2023-02-08T16:08:51;22.37;;;12.70;;
33858;SDS011;20156;47.486;12.074;2023-02-08T16:13:55;19.73;;;13.03;;
33858;SDS011;20156;47.486;12.074;2023-02-08T16:26:34;16.67;;;10.73;;
33858;SDS011;20156;47.486;12.074;2023-02-08T16:29:06;22.70;;;14.67;;
33858;SDS011;20156;47.486;12.074;2023-02-08T16:31:43;17.03;;;11.23;;
33858;SDS011;20156;47.486;12.074;2023-02-08T16:34:15;12.07;;;8.57;;
33858;SDS011;20156;47.486;12.074;2023-02-08T16:36:47;12.43;;;8.87;;
33858;SDS011;20156;47.486;12.074;2023-02-08T16:44:25;20.00;;;12.10;;
33858;SDS011;20156;47.486;12.074;2023-02-08T16:46:54;19.07;;;11.03;;
33858;SDS011;20156;47.486;12.074;2023-02-08T16:49:20;16.43;;;9.80;;
33858;SDS011;20156;47.486;12.074;2023-02-08T16:51:46;10.20;;;6.50;;
33858;SDS011;20156;47.486;12.074;2023-02-08T16:54:16;11.53;;;8.37;;
33858;SDS011;20156;47.486;12.074;2023-02-08T16:56:44;18.53;;;11.20;;
33858;SDS011;20156;47.486;12.074;2023-02-08T16:59:12;25.23;;;15.63;;